Time;durP1;ratioP1;P1;durP2;ratioP2;P2;SDS_P1;SDS_P2;PMS_P1;PMS_P2;Temp;Humidity;BMP_temperature;BMP_pressure;BME280_temperature;BME280_humidity;BME280_pressure;Samples;Min_cycle;Max_cycle;Signal;HPM_P1;HPM_P2
2022/03/26 00:01:27;;;;;;;73.60;30.90;;;;;;;;;;5063358;28;20438;-68
2022/03/26 00:03:52;;;;;;;78.87;31.27;;;;;;;;;;5063029;28;20041;-68
2022/03/26 00:06:18;;;;;;;80.40;30.63;;;;;;;;;;5070441;28;20486;-68
2022/03/26 00:08:43;;;;;;;75.70;31.43;;;;;;;;;;5075460;28;20036;-68
2022/03/26 00:11:08;;;;;;;75.77;31.53;;;;;;;;;;5062873;28;20036;-68
2022/03/26 00:13:33;;;;;;;80.60;31.50;;;;;;;;;;5062444;28;20020;-68
2022/03/26 00:16:01;;;;;;;77.43;32.00;;;;;;;;;;5063278;28;20593;-68
2022/03/26 00:18:27;;;;;;;87.23;33.53;;;;;;;;;;5066545;28;22013;-68
2022/03/26 00:20:52;;;;;;;82.87;32.77;;;;;;;;;;5065682;28;20094;-68
2022/03/26 00:23:17;;;;;;;85.83;32.90;;;;;;;;;;5060682;28;20017;-68
2022/03/26 00:25:43;;;;;;;88.17;33.30;;;;;;;;;;5058118;28;20028;-68
2022/03/26 00:28:08;;;;;;;82.83;31.87;;;;;;;;;;5057646;28;20066;-68
2022/03/26 00:30:34;;;;;;;82.87;32.57;;;;;;;;;;5057819;28;20028;-68
2022/03/26 00:32:59;;;;;;;89.47;33.80;;;;;;;;;;5057976;28;20031;-68
2022/03/26 00:35:24;;;;;;;86.50;33.10;;;;;;;;;;5058776;28;20043;-68
2022/03/26 00:37:52;;;;;;;84.60;34.13;;;;;;;;;;5057614;28;20111;-68
2022/03/26 00:40:17;;;;;;;96.53;35.80;;;;;;;;;;5057773;28;20418;-68
2022/03/26 00:42:43;;;;;;;92.67;35.67;;;;;;;;;;5060611;28;20116;-68
2022/03/26 00:45:08;;;;;;;92.87;36.97;;;;;;;;;;5060702;28;20029;-68
2022/03/26 00:47:34;;;;;;;93.10;37.10;;;;;;;;;;5061434;28;20032;-68
2022/03/26 00:49:59;;;;;;;95.00;35.17;;;;;;;;;;5062108;28;20025;-68
2022/03/26 00:52:24;;;;;;;92.40;36.27;;;;;;;;;;5062298;28;20025;-68
2022/03/26 00:54:49;;;;;;;98.50;36.37;;;;;;;;;;5062086;28;20055;-68
2022/03/26 00:57:16;;;;;;;97.30;37.33;;;;;;;;;;5062554;28;20024;-68
2022/03/26 00:59:45;;;;;;;95.00;37.33;;;;;;;;;;5061947;28;20028;-68
2022/03/26 01:02:10;;;;;;;108.70;39.27;;;;;;;;;;5062099;28;20036;-68
2022/03/26 01:04:36;;;;;;;101.73;39.80;;;;;;;;;;5061996;28;20036;-68
2022/03/26 01:07:01;;;;;;;100.13;38.53;;;;;;;;;;5062515;28;20582;-68
2022/03/26 01:09:26;;;;;;;117.37;41.53;;;;;;;;;;5062472;28;20032;-68
2022/03/26 01:11:52;;;;;;;100.63;39.17;;;;;;;;;;5062308;28;20457;-68
2022/03/26 01:14:17;;;;;;;98.00;36.47;;;;;;;;;;5062280;28;20027;-68
2022/03/26 01:16:42;;;;;;;103.83;39.77;;;;;;;;;;5062408;28;20623;-68
2022/03/26 01:19:07;;;;;;;107.87;40.20;;;;;;;;;;5061620;28;20133;-68
2022/03/26 01:21:33;;;;;;;108.97;40.47;;;;;;;;;;5062072;28;20165;-68
2022/03/26 01:23:58;;;;;;;111.70;41.77;;;;;;;;;;5061845;28;20036;-68
2022/03/26 01:26:23;;;;;;;117.07;41.60;;;;;;;;;;5062555;28;20028;-68
2022/03/26 01:28:49;;;;;;;111.80;42.27;;;;;;;;;;5065876;28;20028;-68
2022/03/26 01:31:19;;;;;;;114.17;42.03;;;;;;;;;;5063627;28;20466;-68
2022/03/26 01:33:44;;;;;;;117.73;42.37;;;;;;;;;;5064256;28;20047;-68
2022/03/26 01:36:10;;;;;;;112.37;41.33;;;;;;;;;;5064991;28;20047;-68
2022/03/26 01:38:35;;;;;;;110.90;42.43;;;;;;;;;;5065867;28;20104;-68
2022/03/26 01:41:00;;;;;;;109.97;41.47;;;;;;;;;;5065626;28;20473;-67
2022/03/26 01:43:25;;;;;;;111.33;41.40;;;;;;;;;;5065466;28;20033;-67
2022/03/26 01:45:51;;;;;;;116.27;43.10;;;;;;;;;;5065458;28;20032;-67
2022/03/26 01:48:16;;;;;;;113.70;41.53;;;;;;;;;;5064068;28;20024;-67
2022/03/26 01:50:42;;;;;;;126.03;43.43;;;;;;;;;;5064564;28;20062;-67
2022/03/26 01:53:07;;;;;;;114.50;42.27;;;;;;;;;;5062011;28;20032;-67
2022/03/26 01:55:32;;;;;;;106.47;41.93;;;;;;;;;;5063700;28;20052;-67
2022/03/26 01:57:58;;;;;;;112.77;41.10;;;;;;;;;;5065091;28;20024;-67
2022/03/26 02:00:24;;;;;;;105.03;39.80;;;;;;;;;;5066102;28;20029;-67
2022/03/26 02:02:50;;;;;;;116.33;41.63;;;;;;;;;;5072129;28;20091;-67
2022/03/26 02:05:16;;;;;;;105.10;37.87;;;;;;;;;;5088639;22;20052;-70
2022/03/26 02:07:43;;;;;;;98.43;37.07;;;;;;;;;;5079491;28;20031;-70
2022/03/26 02:10:09;;;;;;;127.13;39.40;;;;;;;;;;5065446;28;20009;-70
2022/03/26 02:12:35;;;;;;;106.77;37.17;;;;;;;;;;5073093;28;20459;-70
2022/03/26 02:15:00;;;;;;;121.67;40.53;;;;;;;;;;5069045;28;20109;-70
2022/03/26 02:17:26;;;;;;;108.07;39.53;;;;;;;;;;5071509;28;20488;-70
2022/03/26 02:19:52;;;;;;;114.30;41.17;;;;;;;;;;5072979;28;20441;-70
2022/03/26 02:22:17;;;;;;;112.50;39.70;;;;;;;;;;5075491;28;20418;-70
2022/03/26 02:24:42;;;;;;;111.13;38.00;;;;;;;;;;5069927;28;20024;-70
2022/03/26 02:27:08;;;;;;;117.07;39.93;;;;;;;;;;5071206;28;20135;-70
2022/03/26 02:29:33;;;;;;;118.50;39.90;;;;;;;;;;5068640;28;20585;-70
2022/03/26 02:31:59;;;;;;;120.27;41.63;;;;;;;;;;5067874;28;20450;-70
2022/03/26 02:34:24;;;;;;;112.30;40.37;;;;;;;;;;5070322;28;20278;-70
2022/03/26 02:36:53;;;;;;;110.10;39.20;;;;;;;;;;5066950;28;20405;-70
2022/03/26 02:39:18;;;;;;;112.33;38.73;;;;;;;;;;5069340;28;20032;-70
2022/03/26 02:41:44;;;;;;;111.93;39.17;;;;;;;;;;5071195;28;20472;-70
2022/03/26 02:44:09;;;;;;;112.83;38.80;;;;;;;;;;5063130;28;20024;-70
2022/03/26 02:46:36;;;;;;;114.43;39.27;;;;;;;;;;5073946;28;20039;-70
2022/03/26 02:49:01;;;;;;;106.77;37.37;;;;;;;;;;5079404;28;20032;-70
2022/03/26 02:51:26;;;;;;;113.27;36.90;;;;;;;;;;5068297;28;20035;-70
2022/03/26 02:53:52;;;;;;;100.63;37.80;;;;;;;;;;5066663;28;20031;-70
2022/03/26 02:56:19;;;;;;;106.30;36.17;;;;;;;;;;5069431;28;20451;-70
2022/03/26 02:58:45;;;;;;;103.80;36.30;;;;;;;;;;5065471;28;20111;-70
2022/03/26 03:01:10;;;;;;;101.33;36.87;;;;;;;;;;5065152;28;20121;-70
2022/03/26 03:03:36;;;;;;;109.03;37.83;;;;;;;;;;5059759;28;20718;-70
2022/03/26 03:06:01;;;;;;;104.40;36.73;;;;;;;;;;5058762;28;20056;-70
2022/03/26 03:08:26;;;;;;;116.17;39.33;;;;;;;;;;5058479;28;20050;-70
2022/03/26 03:10:52;;;;;;;108.40;38.10;;;;;;;;;;5058603;28;20281;-70
2022/03/26 03:13:21;;;;;;;115.50;39.53;;;;;;;;;;5058540;28;20103;-70
2022/03/26 03:15:46;;;;;;;111.47;38.57;;;;;;;;;;5058380;28;20082;-70
2022/03/26 03:18:11;;;;;;;114.97;39.80;;;;;;;;;;5059538;28;20099;-70
2022/03/26 03:20:37;;;;;;;102.63;37.63;;;;;;;;;;5059562;28;20027;-70
2022/03/26 03:23:02;;;;;;;100.27;37.47;;;;;;;;;;5059445;28;20314;-70
2022/03/26 03:25:29;;;;;;;114.17;38.80;;;;;;;;;;5059691;28;20031;-70
2022/03/26 03:27:54;;;;;;;114.77;38.93;;;;;;;;;;5059853;28;20719;-70
2022/03/26 03:30:19;;;;;;;103.13;38.17;;;;;;;;;;5059235;28;20169;-70
2022/03/26 03:32:45;;;;;;;112.00;37.87;;;;;;;;;;5059088;28;20028;-71
2022/03/26 03:35:10;;;;;;;107.20;37.93;;;;;;;;;;5059669;28;20092;-70
2022/03/26 03:37:37;;;;;;;122.73;41.30;;;;;;;;;;5060408;28;20044;-70
2022/03/26 03:40:03;;;;;;;118.50;40.63;;;;;;;;;;5059199;28;20044;-70
2022/03/26 03:42:28;;;;;;;113.20;39.23;;;;;;;;;;5059319;28;20273;-70
2022/03/26 03:44:53;;;;;;;115.33;38.77;;;;;;;;;;5058697;28;20443;-70
2022/03/26 03:47:19;;;;;;;118.90;39.50;;;;;;;;;;5058537;28;20040;-70
2022/03/26 03:49:44;;;;;;;115.77;39.17;;;;;;;;;;5058774;28;20054;-70
2022/03/26 03:52:09;;;;;;;114.47;40.63;;;;;;;;;;5059239;28;20020;-70
2022/03/26 03:54:34;;;;;;;104.80;37.93;;;;;;;;;;5058854;28;20154;-70
2022/03/26 03:57:00;;;;;;;105.03;38.93;;;;;;;;;;5059192;28;20380;-70
2022/03/26 03:59:25;;;;;;;103.33;36.70;;;;;;;;;;5059518;28;20517;-68
2022/03/26 04:01:50;;;;;;;124.27;38.70;;;;;;;;;;5058650;28;20503;-68
2022/03/26 04:04:16;;;;;;;110.73;38.93;;;;;;;;;;5061150;28;20498;-68
2022/03/26 04:06:42;;;;;;;108.43;38.80;;;;;;;;;;5058463;28;20040;-68
2022/03/26 04:09:07;;;;;;;93.23;36.77;;;;;;;;;;5058440;28;20055;-68
2022/03/26 04:11:32;;;;;;;101.30;36.63;;;;;;;;;;5058277;28;20108;-68
2022/03/26 04:13:57;;;;;;;106.90;37.97;;;;;;;;;;5061886;28;20044;-68
2022/03/26 04:16:23;;;;;;;111.73;40.63;;;;;;;;;;5058274;28;20534;-68
2022/03/26 04:18:48;;;;;;;123.63;42.50;;;;;;;;;;5058384;28;20496;-68
2022/03/26 04:21:14;;;;;;;117.87;41.07;;;;;;;;;;5058639;28;20496;-68
2022/03/26 04:23:40;;;;;;;127.43;43.67;;;;;;;;;;5058433;28;20586;-68
2022/03/26 04:26:06;;;;;;;138.00;44.53;;;;;;;;;;5058261;28;20035;-68
2022/03/26 04:28:31;;;;;;;124.43;44.20;;;;;;;;;;5058348;28;20082;-68
2022/03/26 04:30:57;;;;;;;119.93;42.60;;;;;;;;;;5058168;28;20036;-68
2022/03/26 04:33:22;;;;;;;116.00;41.97;;;;;;;;;;5058739;28;20039;-68
2022/03/26 04:35:47;;;;;;;109.67;41.53;;;;;;;;;;5058365;28;20020;-68
2022/03/26 04:38:12;;;;;;;109.40;42.73;;;;;;;;;;5058719;28;20480;-68
2022/03/26 04:40:38;;;;;;;112.43;41.73;;;;;;;;;;5058357;28;20089;-68
2022/03/26 04:43:03;;;;;;;104.87;40.97;;;;;;;;;;5058282;28;20112;-68
2022/03/26 04:45:29;;;;;;;114.13;42.13;;;;;;;;;;5058165;28;20082;-68
2022/03/26 04:47:54;;;;;;;120.13;42.93;;;;;;;;;;5058468;28;20226;-68
2022/03/26 04:50:19;;;;;;;106.27;39.60;;;;;;;;;;5058430;28;20032;-68
2022/03/26 04:52:45;;;;;;;107.97;39.20;;;;;;;;;;5058595;28;20668;-68
2022/03/26 04:55:11;;;;;;;98.13;40.17;;;;;;;;;;5057916;28;20024;-68
2022/03/26 04:57:40;;;;;;;97.20;36.80;;;;;;;;;;5058223;28;20059;-68
2022/03/26 05:00:06;;;;;;;103.53;37.47;;;;;;;;;;5058159;28;20032;-68
2022/03/26 05:02:31;;;;;;;95.10;35.93;;;;;;;;;;5060961;28;20105;-68
2022/03/26 05:04:56;;;;;;;110.63;39.70;;;;;;;;;;5061484;28;20141;-68
2022/03/26 05:10:07;;;;;;;101.53;38.20;;;;;;;;;;4999358;28;20507;-68
2022/03/26 05:12:32;;;;;;;98.10;37.47;;;;;;;;;;4999731;28;20095;-68
2022/03/26 05:14:57;;;;;;;107.13;39.10;;;;;;;;;;4999277;28;20034;-68
2022/03/26 05:17:23;;;;;;;104.03;37.80;;;;;;;;;;4999293;28;20057;-68
2022/03/26 05:19:48;;;;;;;105.77;37.63;;;;;;;;;;4999288;28;20041;-68
2022/03/26 05:22:13;;;;;;;117.53;38.40;;;;;;;;;;4999388;28;20038;-68
2022/03/26 05:24:38;;;;;;;105.10;37.60;;;;;;;;;;4999001;28;20518;-68
2022/03/26 05:27:04;;;;;;;103.57;38.00;;;;;;;;;;4999406;28;20186;-68
2022/03/26 05:29:29;;;;;;;103.00;38.73;;;;;;;;;;4998682;28;20045;-68
2022/03/26 05:31:55;;;;;;;104.47;37.47;;;;;;;;;;4999018;28;20093;-68
2022/03/26 05:34:20;;;;;;;110.70;41.07;;;;;;;;;;4998810;28;20069;-68
2022/03/26 05:36:45;;;;;;;100.30;38.47;;;;;;;;;;4999097;28;20037;-68
2022/03/26 05:39:11;;;;;;;104.20;38.07;;;;;;;;;;4998527;28;20037;-68
2022/03/26 05:41:36;;;;;;;104.60;38.37;;;;;;;;;;4999047;28;20038;-68
2022/03/26 05:44:01;;;;;;;100.93;39.03;;;;;;;;;;4999092;28;20450;-68
2022/03/26 05:46:27;;;;;;;111.17;40.50;;;;;;;;;;5008374;28;20440;-68
2022/03/26 05:48:52;;;;;;;98.00;38.20;;;;;;;;;;5061506;28;20028;-68
2022/03/26 05:51:17;;;;;;;101.37;38.67;;;;;;;;;;5061156;28;20024;-68
2022/03/26 05:53:44;;;;;;;95.73;38.17;;;;;;;;;;5061369;28;20271;-68
2022/03/26 05:56:09;;;;;;;97.07;37.37;;;;;;;;;;5060756;28;20517;-68
2022/03/26 05:58:34;;;;;;;94.43;36.40;;;;;;;;;;5061502;28;20269;-68
2022/03/26 06:01:00;;;;;;;105.37;41.70;;;;;;;;;;5060288;28;20309;-68
2022/03/26 06:03:25;;;;;;;99.43;39.53;;;;;;;;;;5063696;28;20032;-68
2022/03/26 06:05:51;;;;;;;114.63;42.03;;;;;;;;;;5060826;28;20051;-68
2022/03/26 06:08:16;;;;;;;106.47;41.07;;;;;;;;;;5061139;28;20032;-68
2022/03/26 06:10:41;;;;;;;103.27;38.60;;;;;;;;;;5062766;28;20212;-68
2022/03/26 06:13:06;;;;;;;104.63;37.73;;;;;;;;;;5060713;28;20461;-68
2022/03/26 06:15:34;;;;;;;84.30;34.70;;;;;;;;;;5060951;28;20699;-68
2022/03/26 06:18:00;;;;;;;79.70;33.00;;;;;;;;;;5068143;28;20099;-68
2022/03/26 06:20:26;;;;;;;79.87;29.90;;;;;;;;;;5069573;28;20560;-68
2022/03/26 06:22:52;;;;;;;66.60;27.63;;;;;;;;;;5060752;28;20024;-68
2022/03/26 06:25:17;;;;;;;68.53;27.53;;;;;;;;;;5060745;28;20032;-67
2022/03/26 06:27:42;;;;;;;55.73;26.53;;;;;;;;;;5061308;28;20035;-67
2022/03/26 06:30:08;;;;;;;66.57;26.60;;;;;;;;;;5060810;28;20457;-68
2022/03/26 06:32:33;;;;;;;60.50;27.00;;;;;;;;;;5061185;28;20514;-67
2022/03/26 06:34:58;;;;;;;59.97;26.03;;;;;;;;;;5060849;28;20260;-67
2022/03/26 06:37:23;;;;;;;66.13;28.70;;;;;;;;;;5061035;28;20480;-68
2022/03/26 06:39:49;;;;;;;75.70;31.47;;;;;;;;;;5060873;28;20092;-68
2022/03/26 06:42:14;;;;;;;75.50;31.00;;;;;;;;;;5060520;28;20036;-67
2022/03/26 06:44:39;;;;;;;67.93;30.17;;;;;;;;;;5060401;28;20115;-67
2022/03/26 06:47:05;;;;;;;69.87;32.30;;;;;;;;;;5060537;28;20032;-67
2022/03/26 06:49:32;;;;;;;70.53;32.33;;;;;;;;;;5060506;28;20036;-67
2022/03/26 06:51:58;;;;;;;79.17;33.23;;;;;;;;;;5060584;28;20028;-67
2022/03/26 06:54:23;;;;;;;76.27;33.53;;;;;;;;;;5059908;28;20036;-67
2022/03/26 06:56:48;;;;;;;67.90;33.43;;;;;;;;;;5060469;28;20032;-67
2022/03/26 06:59:13;;;;;;;75.27;34.17;;;;;;;;;;5060163;28;20058;-67
2022/03/26 07:01:38;;;;;;;77.87;35.70;;;;;;;;;;5060388;28;20094;-67
2022/03/26 07:04:04;;;;;;;80.00;35.37;;;;;;;;;;5059903;28;20113;-67
2022/03/26 07:06:29;;;;;;;80.60;35.90;;;;;;;;;;5060453;28;20035;-67
2022/03/26 07:08:54;;;;;;;82.23;37.80;;;;;;;;;;5060014;28;20476;-67
2022/03/26 07:11:20;;;;;;;78.73;37.40;;;;;;;;;;5059457;28;20024;-67
2022/03/26 07:13:45;;;;;;;82.50;37.93;;;;;;;;;;5059056;28;20024;-67
2022/03/26 07:16:11;;;;;;;77.90;36.07;;;;;;;;;;5059759;28;20025;-67
2022/03/26 07:18:36;;;;;;;86.57;39.27;;;;;;;;;;5059894;28;20281;-67
2022/03/26 07:21:01;;;;;;;85.03;38.93;;;;;;;;;;5058917;28;20024;-68
2022/03/26 07:23:27;;;;;;;83.10;37.70;;;;;;;;;;5059560;28;20103;-68
2022/03/26 07:25:53;;;;;;;83.23;38.77;;;;;;;;;;5058675;28;20447;-68
2022/03/26 07:28:19;;;;;;;84.65;38.05;;;;;;;;;;5059612;28;20590;-68
2022/03/26 07:30:44;;;;;;;84.50;38.75;;;;;;;;;;5059248;28;20048;-68
2022/03/26 07:33:09;;;;;;;83.43;37.58;;;;;;;;;;5059625;28;20059;-68
2022/03/26 07:35:35;;;;;;;74.50;35.38;;;;;;;;;;5059571;28;20108;-68
2022/03/26 07:38:00;;;;;;;80.93;36.42;;;;;;;;;;5059623;28;20563;-68
2022/03/26 07:40:25;;;;;;;74.45;35.72;;;;;;;;;;5059386;28;20423;-68
2022/03/26 07:42:51;;;;;;;74.70;36.42;;;;;;;;;;5060023;28;20598;-68
2022/03/26 07:45:16;;;;;;;68.68;34.42;;;;;;;;;;5059496;28;20036;-68
2022/03/26 07:47:41;;;;;;;74.70;36.55;;;;;;;;;;5059640;28;20056;-68
2022/03/26 07:50:07;;;;;;;68.65;33.30;;;;;;;;;;5059537;28;20639;-68
2022/03/26 07:52:33;;;;;;;65.40;32.38;;;;;;;;;;5058622;28;20016;-68
2022/03/26 07:54:58;;;;;;;76.00;35.92;;;;;;;;;;5059183;28;20098;-68
2022/03/26 07:57:23;;;;;;;72.50;34.55;;;;;;;;;;5059548;28;20575;-68
2022/03/26 07:59:48;;;;;;;71.30;34.83;;;;;;;;;;5059135;28;20096;-68
2022/03/26 08:02:14;;;;;;;65.60;33.60;;;;;;;;;;5058759;28;20029;-68
2022/03/26 08:04:39;;;;;;;72.97;34.10;;;;;;;;;;5061535;28;20330;-68
2022/03/26 08:07:06;;;;;;;69.13;35.08;;;;;;;;;;5058084;28;20273;-68
2022/03/26 08:09:31;;;;;;;70.55;35.03;;;;;;;;;;5061755;28;20495;-68
2022/03/26 08:11:57;;;;;;;72.05;35.45;;;;;;;;;;5059375;28;20044;-69
2022/03/26 08:14:22;;;;;;;68.88;34.80;;;;;;;;;;5058982;28;20444;-69
2022/03/26 08:16:47;;;;;;;66.57;33.97;;;;;;;;;;5058919;28;20020;-69
2022/03/26 08:19:13;;;;;;;75.70;35.40;;;;;;;;;;5061342;28;20179;-69
2022/03/26 08:21:38;;;;;;;68.82;35.75;;;;;;;;;;5058973;28;20520;-69
2022/03/26 08:24:03;;;;;;;69.68;36.97;;;;;;;;;;5058738;28;20051;-69
2022/03/26 08:26:29;;;;;;;68.63;34.45;;;;;;;;;;5058667;28;20036;-69
2022/03/26 08:28:55;;;;;;;63.90;33.35;;;;;;;;;;5058165;28;20499;-69
2022/03/26 08:31:22;;;;;;;65.43;34.75;;;;;;;;;;5057966;28;20047;-69
2022/03/26 08:33:47;;;;;;;69.68;35.28;;;;;;;;;;5058222;28;20086;-69
2022/03/26 08:36:14;;;;;;;66.20;33.40;;;;;;;;;;5057065;28;20249;-69
2022/03/26 08:38:39;;;;;;;65.00;33.88;;;;;;;;;;5058803;28;20035;-70
2022/03/26 08:41:05;;;;;;;61.22;33.53;;;;;;;;;;5056692;28;20024;-69
2022/03/26 08:43:30;;;;;;;65.97;34.55;;;;;;;;;;5051015;28;20020;-70
2022/03/26 08:45:56;;;;;;;60.58;34.28;;;;;;;;;;5057894;28;20111;-70
2022/03/26 08:48:21;;;;;;;62.88;32.25;;;;;;;;;;5058596;28;20170;-69
2022/03/26 08:50:47;;;;;;;60.70;30.92;;;;;;;;;;5058477;28;20631;-69
2022/03/26 08:53:12;;;;;;;57.88;29.15;;;;;;;;;;5058311;28;20157;-70
2022/03/26 08:55:37;;;;;;;51.67;27.65;;;;;;;;;;5058443;28;20032;-70
2022/03/26 08:58:03;;;;;;;52.75;27.20;;;;;;;;;;5058491;28;20252;-70
2022/03/26 09:00:28;;;;;;;49.85;27.35;;;;;;;;;;5057896;28;20377;-70
2022/03/26 09:02:54;;;;;;;55.33;27.65;;;;;;;;;;5058108;28;20481;-70
2022/03/26 09:05:20;;;;;;;48.03;26.42;;;;;;;;;;5058168;28;20130;-70
2022/03/26 09:07:45;;;;;;;44.22;24.95;;;;;;;;;;5057868;28;20036;-70
2022/03/26 09:10:11;;;;;;;48.50;25.95;;;;;;;;;;5057471;28;20021;-69
2022/03/26 09:12:36;;;;;;;44.15;25.13;;;;;;;;;;5058520;28;20025;-70
2022/03/26 09:15:02;;;;;;;45.80;23.98;;;;;;;;;;5058027;28;20589;-70
2022/03/26 09:17:27;;;;;;;45.67;23.98;;;;;;;;;;5058463;28;20012;-70
2022/03/26 09:19:53;;;;;;;41.63;24.65;;;;;;;;;;5057659;28;20032;-70
2022/03/26 09:22:18;;;;;;;42.30;23.20;;;;;;;;;;5058234;28;20386;-70
2022/03/26 09:24:43;;;;;;;45.15;24.35;;;;;;;;;;5057677;28;20012;-70
2022/03/26 09:27:09;;;;;;;42.70;24.85;;;;;;;;;;5058277;28;20078;-69
2022/03/26 09:29:34;;;;;;;44.15;24.02;;;;;;;;;;5058056;28;20169;-69
2022/03/26 09:32:00;;;;;;;41.45;23.42;;;;;;;;;;5058383;28;20365;-69
2022/03/26 09:34:25;;;;;;;42.28;23.77;;;;;;;;;;5057766;28;20023;-69
2022/03/26 09:36:50;;;;;;;39.17;22.63;;;;;;;;;;5057655;28;20468;-69
2022/03/26 09:39:15;;;;;;;44.47;23.23;;;;;;;;;;5057952;28;20017;-69
2022/03/26 09:41:41;;;;;;;37.63;20.08;;;;;;;;;;5058571;28;20197;-69
2022/03/26 09:44:06;;;;;;;45.58;22.23;;;;;;;;;;5057848;28;20012;-69
2022/03/26 09:46:34;;;;;;;35.05;20.55;;;;;;;;;;5057718;28;20170;-69
2022/03/26 09:48:59;;;;;;;33.38;18.00;;;;;;;;;;5042980;28;20108;-69
2022/03/26 09:51:24;;;;;;;34.40;18.77;;;;;;;;;;5061419;28;20437;-69
2022/03/26 09:53:51;;;;;;;29.35;16.25;;;;;;;;;;5061558;28;20308;-69
2022/03/26 09:56:17;;;;;;;28.42;16.27;;;;;;;;;;5064381;28;20020;-69
2022/03/26 09:58:42;;;;;;;29.25;16.05;;;;;;;;;;5061466;28;20031;-69
2022/03/26 10:01:07;;;;;;;34.10;19.13;;;;;;;;;;5062447;28;20464;-69
2022/03/26 10:03:35;;;;;;;29.52;16.30;;;;;;;;;;5061019;28;20276;-69
2022/03/26 10:06:04;;;;;;;29.48;15.73;;;;;;;;;;5060580;28;20729;-69
2022/03/26 10:08:34;;;;;;;32.70;17.55;;;;;;;;;;5061737;28;20435;-69
2022/03/26 10:11:00;;;;;;;29.75;17.63;;;;;;;;;;5061074;28;20241;-69
2022/03/26 10:13:39;;;;;;;31.08;15.68;;;;;;;;;;5041271;28;20066;-69
2022/03/26 10:16:12;;;;;;;27.80;13.70;;;;;;;;;;5057164;28;20033;-69
2022/03/26 10:18:44;;;;;;;25.77;15.35;;;;;;;;;;5061343;28;20112;-69
2022/03/26 10:21:13;;;;;;;27.42;15.05;;;;;;;;;;5060710;28;20024;-68
2022/03/26 10:23:43;;;;;;;25.25;13.90;;;;;;;;;;5063945;28;20021;-68
2022/03/26 10:26:08;;;;;;;25.20;15.02;;;;;;;;;;5060693;28;20047;-68
2022/03/26 10:28:33;;;;;;;23.65;14.02;;;;;;;;;;5061191;28;20067;-68
2022/03/26 10:34:07;;;;;;;25.83;13.40;;;;;;;;;;5061531;28;20035;-68
2022/03/26 10:36:33;;;;;;;25.35;13.30;;;;;;;;;;5060731;28;20074;-68
2022/03/26 10:38:59;;;;;;;25.10;14.15;;;;;;;;;;5061194;28;20020;-68
2022/03/26 10:41:24;;;;;;;30.02;15.43;;;;;;;;;;5061032;28;20043;-68
2022/03/26 10:44:04;;;;;;;28.50;14.57;;;;;;;;;;5060490;28;20032;-68
2022/03/26 10:46:29;;;;;;;24.95;13.55;;;;;;;;;;5060295;28;20031;-68
2022/03/26 10:49:01;;;;;;;27.15;14.55;;;;;;;;;;5060279;28;20264;-69
2022/03/26 10:51:34;;;;;;;35.78;15.88;;;;;;;;;;5059182;28;20122;-68
2022/03/26 10:54:06;;;;;;;30.92;15.38;;;;;;;;;;5059214;28;20020;-68
2022/03/26 10:56:32;;;;;;;29.13;15.75;;;;;;;;;;5060454;28;20169;-68
2022/03/26 10:58:58;;;;;;;30.58;15.65;;;;;;;;;;5058974;28;20547;-68
2022/03/26 11:01:23;;;;;;;33.42;16.95;;;;;;;;;;5059036;28;20106;-68
2022/03/26 11:03:48;;;;;;;29.90;15.50;;;;;;;;;;5059137;28;20031;-68
2022/03/26 11:06:15;;;;;;;35.17;17.17;;;;;;;;;;5060044;28;20303;-68
2022/03/26 11:08:41;;;;;;;26.50;14.27;;;;;;;;;;5059360;28;20071;-68
2022/03/26 11:11:07;;;;;;;28.33;16.35;;;;;;;;;;5059592;28;20461;-68
2022/03/26 11:13:34;;;;;;;29.27;16.25;;;;;;;;;;5060525;28;20146;-68
2022/03/26 11:16:01;;;;;;;26.90;13.50;;;;;;;;;;5060356;28;20021;-68
2022/03/26 11:18:36;;;;;;;27.08;13.70;;;;;;;;;;5059965;28;20107;-68
2022/03/26 11:21:04;;;;;;;25.15;14.18;;;;;;;;;;5055318;28;20056;-68
2022/03/26 11:23:50;;;;;;;25.42;14.20;;;;;;;;;;5057868;28;20108;-68
2022/03/26 11:26:28;;;;;;;28.42;14.75;;;;;;;;;;5059295;28;20475;-68
2022/03/26 11:29:05;;;;;;;30.90;16.50;;;;;;;;;;5059829;28;20028;-68
2022/03/26 11:31:38;;;;;;;32.63;16.30;;;;;;;;;;5059346;28;20136;-68
2022/03/26 11:34:05;;;;;;;24.60;14.63;;;;;;;;;;5059858;28;20508;-69
2022/03/26 11:36:31;;;;;;;32.42;15.48;;;;;;;;;;5059822;28;20021;-69
2022/03/26 11:39:07;;;;;;;25.65;13.75;;;;;;;;;;5059518;28;20036;-69
2022/03/26 11:41:33;;;;;;;30.23;14.38;;;;;;;;;;5059764;28;20135;-68
2022/03/26 11:44:01;;;;;;;24.70;15.10;;;;;;;;;;5059812;28;20024;-68
2022/03/26 11:52:15;;;;;;;25.98;13.95;;;;;;;;;;5061277;28;20047;-68
2022/03/26 11:54:41;;;;;;;22.67;13.50;;;;;;;;;;5059013;28;20025;-68
2022/03/26 11:57:25;;;;;;;23.02;12.90;;;;;;;;;;5058835;28;20029;-69
2022/03/26 11:59:51;;;;;;;23.52;13.07;;;;;;;;;;5062111;28;20028;-69
2022/03/26 12:02:21;;;;;;;20.00;12.55;;;;;;;;;;5059885;28;20028;-69
2022/03/26 12:04:48;;;;;;;23.55;14.35;;;;;;;;;;5058177;28;20481;-69
2022/03/26 12:07:14;;;;;;;22.48;13.57;;;;;;;;;;5059295;28;20098;-69
2022/03/26 12:09:40;;;;;;;25.73;15.40;;;;;;;;;;5058748;28;20060;-69
2022/03/26 12:12:10;;;;;;;27.42;15.95;;;;;;;;;;5058141;28;20066;-69
2022/03/26 12:14:36;;;;;;;29.52;16.42;;;;;;;;;;5059066;28;20431;-69
2022/03/26 12:17:03;;;;;;;31.13;18.88;;;;;;;;;;5059697;28;20238;-69
2022/03/26 12:19:35;;;;;;;34.33;18.02;;;;;;;;;;5059374;28;20300;-69
2022/03/26 12:22:16;;;;;;;32.17;18.17;;;;;;;;;;5058845;28;20024;-69
2022/03/26 12:24:41;;;;;;;25.10;15.43;;;;;;;;;;5058918;28;20021;-69
2022/03/26 12:27:07;;;;;;;24.27;14.40;;;;;;;;;;5059302;28;20020;-69
2022/03/26 12:29:37;;;;;;;26.33;14.50;;;;;;;;;;5056578;28;20103;-69
2022/03/26 12:32:03;;;;;;;23.40;14.60;;;;;;;;;;5061739;28;20519;-70
2022/03/26 12:34:29;;;;;;;21.90;14.05;;;;;;;;;;5058629;28;20405;-71
2022/03/26 12:37:01;;;;;;;23.63;13.95;;;;;;;;;;5059275;28;20091;-71
2022/03/26 12:39:26;;;;;;;21.50;13.77;;;;;;;;;;5058470;28;20038;-71
2022/03/26 12:41:52;;;;;;;19.30;12.82;;;;;;;;;;5058885;28;20382;-71
2022/03/26 12:44:18;;;;;;;22.77;13.55;;;;;;;;;;5057666;28;20028;-71
2022/03/26 12:46:45;;;;;;;20.05;12.98;;;;;;;;;;5058282;28;20089;-71
2022/03/26 12:49:17;;;;;;;21.33;11.95;;;;;;;;;;5058649;28;20044;-71
2022/03/26 12:51:42;;;;;;;18.35;11.50;;;;;;;;;;5058684;28;20275;-70
2022/03/26 12:54:08;;;;;;;18.38;11.07;;;;;;;;;;5058218;28;20501;-70
2022/03/26 12:56:34;;;;;;;16.90;11.25;;;;;;;;;;5058146;28;20017;-70
2022/03/26 12:59:00;;;;;;;20.30;11.93;;;;;;;;;;5057534;28;20192;-70
2022/03/26 13:01:26;;;;;;;19.30;11.95;;;;;;;;;;5057855;28;20032;-70
2022/03/26 13:03:51;;;;;;;22.30;12.55;;;;;;;;;;5058477;28;20380;-69
2022/03/26 13:06:18;;;;;;;20.25;11.68;;;;;;;;;;5057471;28;20078;-69
2022/03/26 13:08:47;;;;;;;17.30;11.18;;;;;;;;;;5057974;28;20029;-69
2022/03/26 13:11:12;;;;;;;22.73;11.82;;;;;;;;;;5057374;28;20086;-70
2022/03/26 13:13:56;;;;;;;16.92;11.18;;;;;;;;;;5057942;28;20021;-70
2022/03/26 13:16:24;;;;;;;18.77;11.93;;;;;;;;;;5057784;28;20527;-71
2022/03/26 13:19:09;;;;;;;18.40;11.02;;;;;;;;;;5057847;28;20063;-70
2022/03/26 13:21:46;;;;;;;18.20;11.25;;;;;;;;;;5055000;28;20296;-70
2022/03/26 13:24:15;;;;;;;18.23;10.95;;;;;;;;;;5060887;28;20016;-71
2022/03/26 13:26:46;;;;;;;18.60;11.55;;;;;;;;;;5059875;28;20020;-71
2022/03/26 13:29:11;;;;;;;;;;;;;;;;;;5059893;28;20667;-70
2022/03/26 13:31:41;;;;;;;14.77;9.00;;;;;;;;;;5052891;28;19908;-71
2022/03/26 13:34:13;;;;;;;16.38;9.43;;;;;;;;;;5053386;28;20027;-71
2022/03/26 13:36:38;;;;;;;15.68;10.82;;;;;;;;;;5050862;28;20060;-71
2022/03/26 13:39:16;;;;;;;15.05;10.38;;;;;;;;;;5041960;28;20020;-71
2022/03/26 13:41:41;;;;;;;16.90;10.52;;;;;;;;;;5060617;28;20032;-70
2022/03/26 13:44:07;;;;;;;16.35;10.38;;;;;;;;;;5062621;28;20032;-70
2022/03/26 13:46:34;;;;;;;13.45;9.13;;;;;;;;;;5066992;28;20039;-70
2022/03/26 13:49:00;;;;;;;14.88;9.70;;;;;;;;;;5063148;28;20513;-69
2022/03/26 13:51:32;;;;;;;16.25;9.25;;;;;;;;;;5060433;28;20029;-69
2022/03/26 13:54:02;;;;;;;16.27;9.98;;;;;;;;;;5060287;28;20012;-69
2022/03/26 13:56:28;;;;;;;16.30;9.93;;;;;;;;;;5060300;28;20621;-69
2022/03/26 13:58:54;;;;;;;14.43;7.90;;;;;;;;;;5060714;28;20351;-69
2022/03/26 14:01:19;;;;;;;12.85;6.55;;;;;;;;;;5059492;28;20116;-69
2022/03/26 14:03:49;;;;;;;8.68;5.64;;;;;;;;;;4901854;28;4522376;-69
2022/03/26 14:06:14;;;;;;;9.00;4.63;;;;;;;;;;5061370;28;20476;-69
2022/03/26 14:08:40;;;;;;;11.75;5.10;;;;;;;;;;5061855;28;20037;-69
2022/03/26 14:11:05;;;;;;;9.07;5.18;;;;;;;;;;5061324;28;20024;-70
2022/03/26 14:13:30;;;;;;;10.48;5.18;;;;;;;;;;5060485;28;20024;-70
2022/03/26 14:15:56;;;;;;;9.40;5.03;;;;;;;;;;5060480;28;20082;-70
2022/03/26 14:18:21;;;;;;;8.65;5.03;;;;;;;;;;5061412;28;20128;-70
2022/03/26 14:20:47;;;;;;;11.40;4.53;;;;;;;;;;5060950;28;20066;-71